createdAt,value
2023-05-24T00:00:53.513Z,1000.01
2023-05-24T00:01:53.503Z,1000.07
2023-05-24T00:02:53.563Z,999.98
2023-05-24T00:03:53.602Z,1000.12
2023-05-24T00:04:53.469Z,1000.08
2023-05-24T00:05:53.460Z,999.99
2023-05-24T00:06:53.446Z,1000.04
2023-05-24T00:07:53.480Z,1000.04
2023-05-24T00:09:26.049Z,1000.06
2023-05-24T00:09:53.423Z,1000.07
2023-05-24T00:10:53.410Z,1000.07
2023-05-24T00:11:53.439Z,1000.01
2023-05-24T00:12:53.433Z,1000.06
2023-05-24T00:13:53.404Z,1000.00
2023-05-24T00:14:53.392Z,1000.08
2023-05-24T00:15:53.383Z,1000.08
2023-05-24T00:16:53.479Z,1000.09
2023-05-24T00:17:53.383Z,1000.04
2023-05-24T00:18:53.353Z,1000.08
2023-05-24T00:19:53.400Z,1000.06
2023-05-24T00:20:53.393Z,1000.10
2023-05-24T00:21:53.354Z,1000.11
2023-05-24T00:22:53.321Z,1000.16
2023-05-24T00:23:53.314Z,1000.01
2023-05-24T00:24:53.311Z,1000.12
2023-05-24T00:25:53.332Z,1000.06
2023-05-24T00:26:53.314Z,1000.09
2023-05-24T00:27:53.284Z,1000.02
2023-05-24T00:28:53.288Z,1000.04
2023-05-24T00:29:53.277Z,1000.09
2023-05-24T00:30:53.281Z,1000.09
2023-05-24T00:31:53.328Z,1000.11
2023-05-24T00:32:53.277Z,1000.09
2023-05-24T00:33:53.240Z,1000.14
2023-05-24T00:34:53.227Z,1000.15
2023-05-24T00:35:53.249Z,1000.13
2023-05-24T00:36:53.217Z,1000.08
2023-05-24T00:37:53.203Z,1000.23
2023-05-24T00:38:53.201Z,1000.23
2023-05-24T00:39:53.226Z,1000.22
2023-05-24T00:40:53.205Z,1000.23
2023-05-24T00:41:53.203Z,1000.26
2023-05-24T00:42:53.168Z,1000.23
2023-05-24T00:43:53.159Z,1000.17
2023-05-24T00:44:53.177Z,1000.26
2023-05-24T00:45:53.168Z,1000.25
2023-05-24T00:46:53.133Z,1000.21
2023-05-24T00:47:53.201Z,1000.25
2023-05-24T00:48:53.134Z,1000.19
2023-05-24T00:49:53.134Z,1000.23
2023-05-24T00:50:53.104Z,1000.21
2023-05-24T00:51:53.106Z,1000.24
2023-05-24T00:52:54.098Z,1000.29
2023-05-24T00:53:53.106Z,1000.28
2023-05-24T00:54:53.099Z,1000.24
2023-05-24T00:55:53.070Z,1000.26
2023-05-24T00:56:53.063Z,1000.29
2023-05-24T00:57:53.059Z,1000.27
2023-05-24T00:58:53.071Z,1000.26
2023-05-24T00:59:53.042Z,1000.19
2023-05-24T01:00:53.036Z,1000.22
2023-05-24T01:01:53.116Z,1000.20
2023-05-24T01:02:53.088Z,1000.17
2023-05-24T01:03:53.065Z,1000.23
2023-05-24T01:04:53.010Z,1000.18
2023-05-24T01:05:52.997Z,1000.22
2023-05-24T01:06:52.990Z,1000.26
2023-05-24T01:07:53.024Z,1000.27
2023-05-24T01:08:53.010Z,1000.27
2023-05-24T01:09:52.977Z,1000.22
2023-05-24T01:10:52.964Z,1000.21
2023-05-24T01:11:52.963Z,1000.21
2023-05-24T01:12:52.984Z,1000.23
2023-05-24T01:13:52.944Z,1000.24
2023-05-24T01:14:52.946Z,1000.27
2023-05-24T01:15:52.953Z,1000.16
2023-05-24T01:16:52.937Z,1000.22
2023-05-24T01:17:52.996Z,1000.27
2023-05-24T01:18:52.903Z,1000.30
2023-05-24T01:19:52.931Z,1000.27
2023-05-24T01:20:52.913Z,1000.23
2023-05-24T01:21:52.913Z,1000.31
2023-05-24T01:22:52.914Z,1000.30
2023-05-24T01:23:52.886Z,1000.30
2023-05-24T01:24:52.863Z,1000.29
2023-05-24T01:25:52.851Z,1000.27
2023-05-24T01:26:52.866Z,1000.25
2023-05-24T01:27:52.840Z,1000.26
2023-05-24T01:28:52.823Z,1000.22
2023-05-24T01:29:52.817Z,1000.31
2023-05-24T01:30:52.813Z,1000.19
2023-05-24T01:31:52.883Z,1000.25
2023-05-24T01:32:52.884Z,1000.17
2023-05-24T01:33:52.792Z,1000.20
2023-05-24T01:34:52.783Z,1000.20
2023-05-24T01:35:52.771Z,1000.20
2023-05-24T01:36:52.788Z,1000.17
2023-05-24T01:37:52.753Z,1000.13
2023-05-24T01:38:52.754Z,1000.20
2023-05-24T01:39:52.741Z,1000.21
2023-05-24T01:40:52.738Z,1000.28
2023-05-24T01:41:52.758Z,1000.22
2023-05-24T01:42:52.720Z,1000.25
2023-05-24T01:43:52.710Z,1000.23
2023-05-24T01:44:52.708Z,1000.29
2023-05-24T01:45:52.717Z,1000.28
2023-05-24T01:46:52.815Z,1000.32
2023-05-24T01:47:52.746Z,1000.23
2023-05-24T01:48:52.673Z,1000.29
2023-05-24T01:49:52.664Z,1000.28
2023-05-24T01:50:52.677Z,1000.26
2023-05-24T01:51:52.692Z,1000.26
2023-05-24T01:52:52.640Z,1000.25
2023-05-24T01:53:52.639Z,1000.24
2023-05-24T01:54:52.649Z,1000.21
2023-05-24T01:55:52.646Z,1000.21
2023-05-24T01:56:52.616Z,1000.15
2023-05-24T01:57:52.613Z,1000.20
2023-05-24T01:58:52.613Z,1000.23
2023-05-24T01:59:52.607Z,1000.17
2023-05-24T02:00:53.642Z,1000.19
2023-05-24T02:01:52.620Z,1000.21
2023-05-24T02:02:52.698Z,1000.19
2023-05-24T02:03:52.561Z,1000.20
2023-05-24T02:04:52.580Z,1000.17
2023-05-24T02:05:52.553Z,1000.20
2023-05-24T02:06:52.551Z,1000.11
2023-05-24T02:07:52.540Z,1000.09
2023-05-24T02:08:52.555Z,1000.16
2023-05-24T02:09:52.554Z,1000.12
2023-05-24T02:10:52.514Z,1000.09
2023-05-24T02:11:52.513Z,1000.07
2023-05-24T02:12:52.502Z,1000.10
2023-05-24T02:13:52.516Z,1000.11
2023-05-24T02:14:52.507Z,1000.07
2023-05-24T02:15:52.493Z,1000.09
2023-05-24T02:16:52.487Z,1000.06
2023-05-24T02:17:52.492Z,999.96
2023-05-24T02:18:52.491Z,1000.08
2023-05-24T02:19:52.465Z,1000.08
2023-05-24T02:20:52.442Z,1000.15
2023-05-24T02:21:52.432Z,1000.03
2023-05-24T02:22:52.429Z,999.99
2023-05-24T02:23:52.455Z,1000.06
2023-05-24T02:24:52.419Z,1000.06
2023-05-24T02:25:52.413Z,1000.06
2023-05-24T02:26:52.411Z,1000.05
2023-05-24T02:27:52.426Z,1000.07
2023-05-24T02:28:52.408Z,1000.08
2023-05-24T02:29:52.376Z,1000.05
2023-05-24T02:30:52.384Z,1000.08
2023-05-24T02:31:52.360Z,1000.09
2023-05-24T02:32:52.417Z,1000.08
2023-05-24T02:33:52.359Z,1000.05
2023-05-24T02:34:52.344Z,1000.09
2023-05-24T02:35:52.332Z,1000.12
2023-05-24T02:36:52.343Z,999.99
2023-05-24T02:37:52.346Z,1000.04
2023-05-24T02:38:52.317Z,999.96
2023-05-24T02:39:52.344Z,999.97
2023-05-24T02:40:52.297Z,999.96
2023-05-24T02:41:52.311Z,1000.03
2023-05-24T02:42:52.302Z,999.94
2023-05-24T02:43:52.274Z,999.97
2023-05-24T02:44:52.274Z,999.91
2023-05-24T02:45:52.308Z,999.91
2023-05-24T02:46:52.274Z,999.93
2023-05-24T02:47:52.284Z,999.93
2023-05-24T02:48:52.251Z,999.89
2023-05-24T02:49:52.218Z,999.92
2023-05-24T02:50:53.248Z,999.94
2023-05-24T02:51:52.227Z,999.91
2023-05-24T02:52:52.211Z,999.91
2023-05-24T02:53:52.192Z,999.87
2023-05-24T02:54:52.188Z,999.91
2023-05-24T02:55:52.179Z,999.87
2023-05-24T02:56:52.196Z,999.85
2023-05-24T02:57:52.162Z,999.87
2023-05-24T02:58:52.156Z,999.95
2023-05-24T02:59:52.145Z,999.99
2023-05-24T03:00:52.175Z,1000.01
2023-05-24T03:01:52.188Z,999.98
2023-05-24T03:02:52.173Z,1000.03
2023-05-24T03:03:52.223Z,1000.04
2023-05-24T03:04:52.103Z,1000.06
2023-05-24T03:05:52.191Z,1000.05
2023-05-24T03:06:52.091Z,1000.10
2023-05-24T03:07:52.091Z,1000.00
2023-05-24T03:08:52.084Z,1000.09
2023-05-24T03:09:52.083Z,1000.07
2023-05-24T03:10:52.084Z,1000.13
2023-05-24T03:11:52.052Z,1000.10
2023-05-24T03:12:52.048Z,1000.03
2023-05-24T03:13:52.050Z,1000.09
2023-05-24T03:14:52.065Z,1000.10
2023-05-24T03:15:52.053Z,1000.05
2023-05-24T03:16:52.042Z,1000.06
2023-05-24T03:17:52.046Z,1000.02
2023-05-24T03:18:51.998Z,999.99
2023-05-24T03:19:52.056Z,999.99
2023-05-24T03:20:51.988Z,1000.05
2023-05-24T03:21:51.973Z,1000.03
2023-05-24T03:22:51.973Z,1000.10
2023-05-24T03:23:51.962Z,1000.07
2023-05-24T03:24:51.994Z,1000.10
2023-05-24T03:25:51.954Z,1000.07
2023-05-24T03:26:51.953Z,1000.06
2023-05-24T03:27:51.930Z,1000.05
2023-05-24T03:28:51.920Z,1000.02
2023-05-24T03:29:51.949Z,999.95
2023-05-24T03:30:51.910Z,999.98
2023-05-24T03:31:52.002Z,1000.02
2023-05-24T03:32:51.958Z,999.98
2023-05-24T03:33:51.919Z,1000.01
2023-05-24T03:34:51.917Z,999.98
2023-05-24T03:35:51.886Z,999.97
2023-05-24T03:36:51.867Z,1000.05
2023-05-24T03:37:51.865Z,999.97
2023-05-24T03:38:51.877Z,1000.02
2023-05-24T03:39:51.846Z,1000.00
2023-05-24T03:40:51.838Z,1000.01
2023-05-24T03:41:51.834Z,999.98
2023-05-24T03:42:51.822Z,1000.00
2023-05-24T03:43:51.838Z,1000.02
2023-05-24T03:44:51.805Z,1000.05
2023-05-24T03:45:51.830Z,1000.05
2023-05-24T03:46:51.803Z,1000.06
2023-05-24T03:47:51.924Z,1000.07
2023-05-24T03:48:51.803Z,1000.05
2023-05-24T03:49:51.783Z,1000.09
2023-05-24T03:50:51.772Z,1000.08
2023-05-24T03:51:51.757Z,1000.14
2023-05-24T03:52:51.773Z,1000.17
2023-05-24T03:53:51.756Z,1000.17
2023-05-24T03:54:51.739Z,1000.11
2023-05-24T03:55:51.737Z,1000.09
2023-05-24T03:56:51.722Z,1000.21
2023-05-24T03:57:51.743Z,1000.23
2023-05-24T03:58:51.709Z,1000.22
2023-05-24T03:59:51.710Z,1000.18
2023-05-24T04:00:51.692Z,1000.28
2023-05-24T04:01:51.709Z,1000.26
2023-05-24T04:02:51.765Z,1000.19
2023-05-24T04:03:51.727Z,1000.27
2023-05-24T04:04:51.674Z,1000.29
2023-05-24T04:05:51.655Z,1000.17
2023-05-24T04:06:51.646Z,1000.21
2023-05-24T04:07:51.663Z,1000.23
2023-05-24T04:08:51.628Z,1000.24
2023-05-24T04:09:51.626Z,1000.25
2023-05-24T04:10:51.614Z,1000.23
2023-05-24T04:11:51.609Z,1000.21
2023-05-24T04:12:51.638Z,1000.27
2023-05-24T04:13:51.589Z,1000.30
2023-05-24T04:14:51.581Z,1000.32
2023-05-24T04:15:51.578Z,1000.33
2023-05-24T04:16:51.604Z,1000.32
2023-05-24T04:17:51.599Z,1000.31
2023-05-24T04:18:51.676Z,1000.30
2023-05-24T04:19:51.550Z,1000.28
2023-05-24T04:20:51.534Z,1000.32
2023-05-24T04:21:51.560Z,1000.36
2023-05-24T04:22:51.544Z,1000.30
2023-05-24T04:23:51.548Z,1000.25
2023-05-24T04:24:51.549Z,1000.26
2023-05-24T04:25:51.499Z,1000.32
2023-05-24T04:26:51.516Z,1000.22
2023-05-24T04:27:51.482Z,1000.24
2023-05-24T04:28:51.471Z,1000.34
2023-05-24T04:29:51.468Z,1000.35
2023-05-24T04:30:51.463Z,1000.31
2023-05-24T04:31:51.489Z,1000.30
2023-05-24T04:32:51.516Z,1000.32
2023-05-24T04:33:51.439Z,1000.28
2023-05-24T04:34:51.430Z,1000.32
2023-05-24T04:35:51.448Z,1000.30
2023-05-24T04:36:51.442Z,1000.37
2023-05-24T04:37:51.401Z,1000.36
2023-05-24T04:38:51.404Z,1000.41
2023-05-24T04:39:51.390Z,1000.40
2023-05-24T04:40:51.412Z,1000.29
2023-05-24T04:41:51.397Z,1000.34
2023-05-24T04:42:52.383Z,1000.39
2023-05-24T04:43:51.357Z,1000.43
2023-05-24T04:44:51.371Z,1000.42
2023-05-24T04:45:51.393Z,1000.47
2023-05-24T04:46:51.394Z,1000.45
2023-05-24T04:47:51.390Z,1000.43
2023-05-24T04:48:51.329Z,1000.48
2023-05-24T04:49:51.315Z,1000.44
2023-05-24T04:50:51.339Z,1000.44
2023-05-24T04:51:52.436Z,1000.50
2023-05-24T04:52:51.295Z,1000.59
2023-05-24T04:53:51.293Z,1000.59
2023-05-24T04:54:51.304Z,1000.58
2023-05-24T04:55:51.296Z,1000.63
2023-05-24T04:56:51.261Z,1000.57
2023-05-24T04:57:51.275Z,1000.61
2023-05-24T04:58:51.257Z,1000.65
2023-05-24T04:59:51.266Z,1000.62
2023-05-24T05:00:51.282Z,1000.57
2023-05-24T05:01:51.318Z,1000.51
2023-05-24T05:02:51.286Z,1000.57
2023-05-24T05:03:51.277Z,1000.55
2023-05-24T05:04:51.237Z,1000.62
2023-05-24T05:05:51.203Z,1000.69
2023-05-24T05:06:51.190Z,1000.64
2023-05-24T05:07:51.188Z,1000.66
2023-05-24T05:08:51.203Z,1000.63
2023-05-24T05:09:51.191Z,1000.68
2023-05-24T05:10:51.168Z,1000.74
2023-05-24T05:11:51.157Z,1000.67
2023-05-24T05:12:51.145Z,1000.66
2023-05-24T05:13:51.157Z,1000.63
2023-05-24T05:14:51.158Z,1000.65
2023-05-24T05:15:51.134Z,1000.61
2023-05-24T05:16:51.142Z,1000.62
2023-05-24T05:17:51.257Z,1000.65
2023-05-24T05:18:51.123Z,1000.64
2023-05-24T05:19:51.128Z,1000.65
2023-05-24T05:20:51.080Z,1000.66
2023-05-24T05:21:51.084Z,1000.67
2023-05-24T05:22:51.074Z,1000.64
2023-05-24T05:23:51.089Z,1000.56
2023-05-24T05:24:51.068Z,1000.58
2023-05-24T05:25:51.054Z,1000.63
2023-05-24T05:26:51.045Z,1000.61
2023-05-24T05:27:51.034Z,1000.69
2023-05-24T05:28:51.050Z,1000.64
2023-05-24T05:29:51.028Z,1000.67
2023-05-24T05:30:51.011Z,1000.65
2023-05-24T05:31:51.037Z,1000.55
2023-05-24T05:32:51.097Z,1000.59
2023-05-24T05:33:51.023Z,1000.59
2023-05-24T05:34:50.970Z,1000.57
2023-05-24T05:35:53.436Z,1000.61
2023-05-24T05:36:50.970Z,1000.60
2023-05-24T05:37:50.981Z,1000.55
2023-05-24T05:38:50.941Z,1000.51
2023-05-24T05:39:50.947Z,1000.57
2023-05-24T05:40:50.930Z,1000.52
2023-05-24T05:41:50.933Z,1000.52
2023-05-24T05:42:50.941Z,1000.57
2023-05-24T05:43:50.918Z,1000.47
2023-05-24T05:44:50.900Z,1000.50
2023-05-24T05:45:50.912Z,1000.54
2023-05-24T05:46:50.882Z,1000.54
2023-05-24T05:47:50.916Z,1000.51
2023-05-24T05:48:50.863Z,1000.53
2023-05-24T05:49:50.866Z,1000.58
2023-05-24T05:50:50.846Z,1000.54
2023-05-24T05:51:50.896Z,1000.53
2023-05-24T05:52:50.834Z,1000.54
2023-05-24T05:53:50.836Z,1000.59
2023-05-24T05:54:50.810Z,1000.55
2023-05-24T05:55:50.813Z,1000.60
2023-05-24T05:56:50.827Z,1000.60
2023-05-24T05:57:50.802Z,1000.58
2023-05-24T05:58:50.783Z,1000.55
2023-05-24T05:59:50.795Z,1000.61
2023-05-24T06:00:50.776Z,1000.61
2023-05-24T06:01:50.780Z,1000.59
2023-05-24T06:02:50.834Z,1000.58
2023-05-24T06:03:51.003Z,1000.56
2023-05-24T06:04:50.804Z,1000.61
2023-05-24T06:05:50.748Z,1000.58
2023-05-24T06:06:50.742Z,1000.57
2023-05-24T06:07:50.715Z,1000.64
2023-05-24T06:08:50.699Z,1000.58
2023-05-24T06:09:50.703Z,1000.50
2023-05-24T06:10:52.848Z,1000.63
2023-05-24T06:11:51.687Z,1000.67
2023-05-24T06:12:50.673Z,1000.56
2023-05-24T06:13:50.676Z,1000.70
2023-05-24T06:14:50.671Z,1000.69
2023-05-24T06:15:50.694Z,1000.65
2023-05-24T06:16:50.639Z,1000.70
2023-05-24T06:17:50.676Z,1000.70
2023-05-24T06:19:04.807Z,1000.75
2023-05-24T06:19:52.716Z,1000.75
2023-05-24T06:20:50.655Z,1000.75
2023-05-24T06:21:50.679Z,1000.68
2023-05-24T06:22:50.603Z,1000.66
2023-05-24T06:23:50.611Z,1000.68
2023-05-24T06:24:50.609Z,1000.75
2023-05-24T06:25:50.605Z,1000.67
2023-05-24T06:26:50.575Z,1000.69
2023-05-24T06:27:50.551Z,1000.69
2023-05-24T06:28:50.554Z,1000.66
2023-05-24T06:29:50.643Z,1000.75
2023-05-24T06:30:50.544Z,1000.72
2023-05-24T06:31:51.026Z,1000.77
2023-05-24T06:32:50.548Z,1000.80
2023-05-24T06:34:02.555Z,1000.85
2023-05-24T06:34:52.535Z,1000.85
2023-05-24T06:35:50.496Z,1000.91
2023-05-24T06:36:50.493Z,1000.75
2023-05-24T06:37:50.484Z,1000.83
2023-05-24T06:38:50.529Z,1000.93
2023-05-24T06:39:50.518Z,1000.90
2023-05-24T06:40:50.463Z,1000.87
2023-05-24T06:41:50.457Z,1000.95
2023-05-24T06:42:50.447Z,1001.03
2023-05-24T06:43:50.467Z,1001.06
2023-05-24T06:44:50.437Z,1001.07
2023-05-24T06:45:50.421Z,1001.05
2023-05-24T06:46:50.447Z,1001.04
2023-05-24T06:47:50.505Z,1001.10
2023-05-24T06:48:50.500Z,1001.14
2023-05-24T06:49:50.396Z,1001.11
2023-05-24T06:50:50.395Z,1001.15
2023-05-24T06:51:50.376Z,1001.16
2023-05-24T06:52:50.392Z,1001.13
2023-05-24T06:53:50.393Z,1001.22
2023-05-24T06:54:50.372Z,1001.14
2023-05-24T06:55:50.350Z,1001.18
2023-05-24T06:56:50.336Z,1001.10
2023-05-24T06:57:50.359Z,1001.18
2023-05-24T06:58:50.324Z,1001.19
2023-05-24T06:59:50.316Z,1001.16
2023-05-24T07:00:50.339Z,1001.19
2023-05-24T07:01:50.339Z,1001.18
2023-05-24T07:02:50.345Z,1001.12
2023-05-24T07:03:50.304Z,1001.14
2023-05-24T07:04:50.318Z,1001.05
2023-05-24T07:05:50.266Z,1001.10
2023-05-24T07:06:50.256Z,1001.03
2023-05-24T07:07:50.284Z,1001.08
2023-05-24T07:08:50.262Z,1001.10
2023-05-24T07:09:50.238Z,1001.02
2023-05-24T07:10:51.237Z,1001.08
2023-05-24T07:11:50.303Z,1001.06
2023-05-24T07:12:50.234Z,1001.05
2023-05-24T07:13:50.205Z,1001.08
2023-05-24T07:14:50.213Z,1001.09
2023-05-24T07:15:50.192Z,1001.09
2023-05-24T07:16:50.220Z,1001.05
2023-05-24T07:17:50.235Z,1001.06
2023-05-24T07:18:50.165Z,1001.10
2023-05-24T07:19:50.248Z,1001.06
2023-05-24T07:20:50.240Z,1001.08
2023-05-24T07:21:50.172Z,1001.06
2023-05-24T07:22:50.140Z,1001.07
2023-05-24T07:23:50.126Z,1001.14
2023-05-24T07:24:50.123Z,1001.08
2023-05-24T07:25:50.110Z,1001.11
2023-05-24T07:26:50.135Z,1001.14
2023-05-24T07:27:50.097Z,1001.11
2023-05-24T07:28:50.088Z,1001.21
2023-05-24T07:29:50.137Z,1001.14
2023-05-24T07:30:50.432Z,1001.16
2023-05-24T07:31:50.188Z,1001.13
2023-05-24T07:32:50.224Z,1001.19
2023-05-24T07:33:50.118Z,1001.15
2023-05-24T07:34:50.136Z,1001.21
2023-05-24T07:35:50.113Z,1001.18
2023-05-24T07:36:50.100Z,1001.16
2023-05-24T07:37:50.057Z,1001.24
2023-05-24T07:38:50.013Z,1001.19
2023-05-24T07:39:50.011Z,1001.17
2023-05-24T07:40:50.030Z,1001.22
2023-05-24T07:41:49.995Z,1001.26
2023-05-24T07:42:50.009Z,1001.22
2023-05-24T07:43:49.980Z,1001.16
2023-05-24T07:44:50.024Z,1001.18
2023-05-24T07:45:49.997Z,1001.12
2023-05-24T07:46:50.060Z,1001.16
2023-05-24T07:47:49.984Z,1001.22
2023-05-24T07:48:49.939Z,1001.22
2023-05-24T07:49:49.952Z,1001.24
2023-05-24T07:50:49.919Z,1001.17
2023-05-24T07:51:50.045Z,1001.17
2023-05-24T07:52:49.916Z,1001.22
2023-05-24T07:53:49.898Z,1001.16
2023-05-24T07:54:49.918Z,1001.23
2023-05-24T07:55:49.892Z,1001.12
2023-05-24T07:56:49.910Z,1001.16
2023-05-24T07:57:49.887Z,1001.15
2023-05-24T07:58:49.860Z,1001.15
2023-05-24T07:59:49.876Z,1001.12
2023-05-24T08:00:49.857Z,1001.03
2023-05-24T08:01:49.835Z,1001.14
2023-05-24T08:02:49.881Z,1001.04
2023-05-24T08:03:49.962Z,1001.11
2023-05-24T08:04:49.838Z,1001.02
2023-05-24T08:05:49.801Z,1001.13
2023-05-24T08:06:49.815Z,1001.10
2023-05-24T08:07:49.842Z,1001.07
2023-05-24T08:08:49.833Z,1001.09
2023-05-24T08:09:49.791Z,1001.08
2023-05-24T08:10:49.782Z,1001.05
2023-05-24T08:11:49.769Z,1001.09
2023-05-24T08:12:49.752Z,1001.04
2023-05-24T08:13:49.771Z,1001.00
2023-05-24T08:14:49.730Z,1001.09
2023-05-24T08:15:49.719Z,1001.01
2023-05-24T08:16:49.773Z,1001.00
2023-05-24T08:17:49.780Z,1001.08
2023-05-24T08:18:51.888Z,1001.12
2023-05-24T08:19:49.730Z,1001.13
2023-05-24T08:20:49.755Z,1001.07
2023-05-24T08:21:49.680Z,1001.09
2023-05-24T08:22:49.705Z,1001.04
2023-05-24T08:23:49.849Z,1001.11
2023-05-24T08:24:49.664Z,1001.08
2023-05-24T08:25:49.666Z,1001.06
2023-05-24T08:26:49.645Z,1001.06
2023-05-24T08:27:49.926Z,1001.08
2023-05-24T08:28:49.628Z,1001.13
2023-05-24T08:29:49.633Z,1001.10
2023-05-24T08:30:49.628Z,1001.13
2023-05-24T08:31:49.687Z,1001.16
2023-05-24T08:32:49.638Z,1001.18
2023-05-24T08:33:49.647Z,1001.17
2023-05-24T08:34:49.583Z,1001.13
2023-05-24T08:35:49.581Z,1001.21
2023-05-24T08:36:49.595Z,1001.14
2023-05-24T08:37:49.823Z,1001.20
2023-05-24T08:38:49.558Z,1001.18
2023-05-24T08:39:49.547Z,1001.19
2023-05-24T08:40:49.556Z,1001.13
2023-05-24T08:42:04.886Z,1001.15
2023-05-24T08:42:51.703Z,1001.18
2023-05-24T08:43:49.522Z,1001.18
2023-05-24T08:44:49.515Z,1001.10
2023-05-24T08:45:49.532Z,1001.13
2023-05-24T08:46:49.570Z,1001.01
2023-05-24T08:47:49.546Z,1001.03
2023-05-24T08:48:49.526Z,1001.08
2023-05-24T08:49:49.476Z,1001.09
2023-05-24T08:50:49.492Z,1001.07
2023-05-24T08:51:49.539Z,1001.22
2023-05-24T08:52:49.456Z,1001.19
2023-05-24T08:53:49.447Z,1001.24
2023-05-24T08:54:49.437Z,1001.21
2023-05-24T08:55:49.465Z,1001.23
2023-05-24T08:56:49.430Z,1001.14
2023-05-24T08:57:49.419Z,1001.14
2023-05-24T08:58:49.408Z,1001.19
2023-05-24T08:59:49.409Z,1001.16
2023-05-24T09:00:49.427Z,1001.07
2023-05-24T09:01:49.478Z,1001.14
2023-05-24T09:02:49.404Z,1000.99
2023-05-24T09:03:49.430Z,1001.11
2023-05-24T09:04:49.396Z,1001.14
2023-05-24T09:05:49.381Z,1001.05
2023-05-24T09:06:49.350Z,1001.16
2023-05-24T09:07:49.345Z,1001.13
2023-05-24T09:08:49.367Z,1001.11
2023-05-24T09:09:49.473Z,1001.12
2023-05-24T09:10:55.432Z,1001.12
2023-05-24T09:11:51.351Z,1001.04
2023-05-24T09:12:49.310Z,1001.15
2023-05-24T09:13:49.299Z,1001.12
2023-05-24T09:14:49.322Z,1001.10
2023-05-24T09:15:49.341Z,1001.14
2023-05-24T09:16:49.283Z,1001.12
2023-05-24T09:17:49.324Z,1001.11
2023-05-24T09:18:49.284Z,1001.03
2023-05-24T09:19:49.371Z,1001.05
2023-05-24T09:20:49.294Z,1001.11
2023-05-24T09:21:49.244Z,1001.11
2023-05-24T09:22:49.225Z,1001.06
2023-05-24T09:23:49.251Z,1001.07
2023-05-24T09:24:49.284Z,1001.05
2023-05-24T09:25:49.213Z,1001.06
2023-05-24T09:26:49.219Z,1001.08
2023-05-24T09:27:49.186Z,1001.05
2023-05-24T09:28:49.206Z,1001.04
2023-05-24T09:29:49.192Z,1000.85
2023-05-24T09:30:49.167Z,1000.98
2023-05-24T09:31:49.221Z,1001.03
2023-05-24T09:32:49.192Z,1000.96
2023-05-24T09:33:49.173Z,1000.96
2023-05-24T09:34:49.140Z,1000.93
2023-05-24T09:35:49.138Z,1000.97
2023-05-24T09:36:49.121Z,1000.93
2023-05-24T09:37:49.143Z,1000.94
2023-05-24T09:38:49.127Z,1000.95
2023-05-24T09:39:49.085Z,1000.96
2023-05-24T09:40:49.089Z,1000.96
2023-05-24T09:41:49.080Z,1000.87
2023-05-24T09:42:49.108Z,1000.86
2023-05-24T09:43:49.073Z,1000.99
2023-05-24T09:44:49.074Z,1000.98
2023-05-24T09:45:49.077Z,1001.00
2023-05-24T09:46:49.053Z,1001.02
2023-05-24T09:47:49.094Z,1001.01
2023-05-24T09:48:49.033Z,1001.05
2023-05-24T09:49:49.405Z,1000.99
2023-05-24T09:50:50.008Z,1001.01
2023-05-24T09:51:49.180Z,1001.05
2023-05-24T09:52:49.026Z,1000.99
2023-05-24T09:53:48.995Z,1001.11
2023-05-24T09:54:48.996Z,1001.05
2023-05-24T09:55:48.981Z,1001.08
2023-05-24T09:56:48.992Z,1001.08
2023-05-24T09:57:48.964Z,1000.93
2023-05-24T09:58:48.960Z,1001.02
2023-05-24T09:59:48.975Z,1000.97
2023-05-24T10:00:49.155Z,1001.00
2023-05-24T10:01:49.039Z,1001.04
2023-05-24T10:02:52.898Z,1001.07
2023-05-24T10:03:50.006Z,1001.03
2023-05-24T10:04:49.049Z,1001.06
2023-05-24T10:05:48.935Z,1001.03
2023-05-24T10:06:48.935Z,1001.02
2023-05-24T10:07:48.900Z,1001.05
2023-05-24T10:08:48.882Z,1001.05
2023-05-24T10:09:48.872Z,1001.10
2023-05-24T10:10:48.900Z,1001.12
2023-05-24T10:11:48.887Z,1001.17
2023-05-24T10:12:48.907Z,1001.17
2023-05-24T10:13:48.851Z,1001.17
2023-05-24T10:14:48.834Z,1001.17
2023-05-24T10:15:48.844Z,1001.16
2023-05-24T10:16:48.833Z,1001.09
2023-05-24T10:17:48.863Z,1001.14
2023-05-24T10:18:48.812Z,1001.14
2023-05-24T10:19:48.828Z,1001.19
2023-05-24T10:20:49.148Z,1001.15
2023-05-24T10:21:48.878Z,1001.13
2023-05-24T10:22:48.783Z,1001.16
2023-05-24T10:23:48.774Z,1001.06
2023-05-24T10:24:48.777Z,1001.08
2023-05-24T10:25:48.777Z,1001.03
2023-05-24T10:26:48.754Z,1001.05
2023-05-24T10:27:48.726Z,1001.11
2023-05-24T10:28:48.769Z,1001.08
2023-05-24T10:29:48.878Z,1001.16
2023-05-24T10:30:48.768Z,1001.09
2023-05-24T10:31:48.774Z,1001.10
2023-05-24T10:32:48.783Z,1001.09
2023-05-24T10:33:48.683Z,1001.13
2023-05-24T10:34:48.701Z,1001.10
2023-05-24T10:35:48.678Z,1001.10
2023-05-24T10:36:48.668Z,1001.10
2023-05-24T10:37:48.648Z,1001.02
2023-05-24T10:38:48.640Z,1001.12
2023-05-24T10:39:48.657Z,1001.11
2023-05-24T10:40:48.708Z,1001.06
2023-05-24T10:41:48.626Z,1001.07
2023-05-24T10:42:48.617Z,1001.11
2023-05-24T10:44:07.316Z,1001.08
2023-05-24T10:44:50.634Z,1001.10
2023-05-24T10:45:48.591Z,1001.08
2023-05-24T10:46:48.667Z,1001.09
2023-05-24T10:47:48.622Z,1001.11
2023-05-24T10:48:48.609Z,1001.09
2023-05-24T10:49:48.579Z,1001.11
2023-05-24T10:50:48.562Z,1001.07
2023-05-24T10:51:48.552Z,1001.03
2023-05-24T10:52:48.540Z,1001.06
2023-05-24T10:53:48.556Z,1001.05
2023-05-24T10:55:02.871Z,1001.05
2023-05-24T10:55:50.523Z,1001.02
2023-05-24T10:56:49.519Z,1001.03
2023-05-24T10:57:48.514Z,1000.91
2023-05-24T10:58:48.522Z,1001.03
2023-05-24T10:59:48.481Z,1000.99
2023-05-24T11:00:48.598Z,1001.00
2023-05-24T11:01:48.551Z,1000.95
2023-05-24T11:02:48.528Z,1001.06
2023-05-24T11:03:48.502Z,1001.08
2023-05-24T11:04:48.448Z,1000.98
2023-05-24T11:05:48.480Z,1001.00
2023-05-24T11:06:48.441Z,1000.89
2023-05-24T11:07:48.457Z,1000.88
2023-05-24T11:08:48.415Z,1001.02
2023-05-24T11:09:48.429Z,1000.87
2023-05-24T11:10:48.401Z,1000.89
2023-05-24T11:11:48.418Z,1000.92
2023-05-24T11:12:48.414Z,1000.89
2023-05-24T11:13:48.390Z,1000.93
2023-05-24T11:14:48.379Z,1000.81
2023-05-24T11:15:48.461Z,1000.86
2023-05-24T11:16:48.487Z,1000.87
2023-05-24T11:17:48.425Z,1000.81
2023-05-24T11:18:48.338Z,1000.81
2023-05-24T11:19:48.400Z,1000.77
2023-05-24T11:20:48.532Z,1000.77
2023-05-24T11:21:48.346Z,1000.75
2023-05-24T11:22:48.325Z,1000.82
2023-05-24T11:23:48.313Z,1000.76
2023-05-24T11:24:48.308Z,1000.77
2023-05-24T11:25:48.284Z,1000.67
2023-05-24T11:26:48.315Z,1000.83
2023-05-24T11:27:48.330Z,1000.74
2023-05-24T11:28:48.273Z,1000.74
2023-05-24T11:29:48.524Z,1000.69
2023-05-24T11:30:48.293Z,1000.78
2023-05-24T11:31:48.316Z,1000.73
2023-05-24T11:32:48.364Z,1000.82
2023-05-24T11:33:49.135Z,1000.70
2023-05-24T11:34:48.224Z,1000.73
2023-05-24T11:35:48.233Z,1000.73
2023-05-24T11:36:48.206Z,1000.72
2023-05-24T11:37:48.202Z,1000.63
2023-05-24T11:38:48.190Z,1000.69
2023-05-24T11:39:48.187Z,1000.73
2023-05-24T11:40:48.218Z,1000.77
2023-05-24T11:41:48.168Z,1000.73
2023-05-24T11:42:48.191Z,1000.67
2023-05-24T11:43:48.143Z,1000.77
2023-05-24T11:44:48.177Z,1000.75
2023-05-24T11:45:48.200Z,1000.76
2023-05-24T11:46:48.135Z,1000.74
2023-05-24T11:47:48.168Z,1000.75
2023-05-24T11:48:48.117Z,1000.68
2023-05-24T11:49:48.136Z,1000.70
2023-05-24T11:50:49.689Z,1000.67
2023-05-24T11:51:49.082Z,1000.66
2023-05-24T11:52:48.077Z,1000.65
2023-05-24T11:53:48.075Z,1000.62
2023-05-24T11:54:48.096Z,1000.69
2023-05-24T11:55:48.064Z,1000.73
2023-05-24T11:56:48.046Z,1000.69
2023-05-24T11:57:48.045Z,1000.65
2023-05-24T11:58:48.090Z,1000.61
2023-05-24T11:59:48.068Z,1000.63
2023-05-24T12:00:48.020Z,1000.62
2023-05-24T12:01:48.011Z,1000.63
2023-05-24T12:02:48.156Z,1000.58
2023-05-24T12:03:48.195Z,1000.64
2023-05-24T12:04:48.004Z,1000.63
2023-05-24T12:05:47.989Z,1000.67
2023-05-24T12:06:47.979Z,1000.63